Terminal Aerodrome Forecast
Issued by NWS Missoula, MT

Home | Current Version | Previous Version | Text Only | Print | Product List | Glossary On
Versions: 1 2 3 4 5 6 7 8 9 10 11 12 13 14
409
FTUS45 KMSO 211122
TAFBTM
TAF
KBTM 211122Z 2112/2212 VRB03KT 6SM -SN BKN030
     FM211600 24015G25KT P6SM VCSH BKN060
     FM220400 26011KT P6SM VCSH BKN060=

USA.gov is the U.S. government's official web portal to all federal, state and local government web resources and services.